sensor_id;sensor_type;location;lat;lon;timestamp;pressure;altitude;pressure_sealevel;temperature;humidity
10064;BME280;5071;52.360;13.134;2022-07-01T00:00:28;100711.50;;;21.78;73.77
10064;BME280;5071;52.360;13.134;2022-07-01T00:05:30;100712.06;;;21.68;74.17
10064;BME280;5071;52.360;13.134;2022-07-01T00:10:34;100700.66;;;21.63;74.19
10064;BME280;5071;52.360;13.134;2022-07-01T00:15:36;100699.88;;;21.61;74.39
10064;BME280;5071;52.360;13.134;2022-07-01T00:20:38;100691.44;;;21.51;74.32
10064;BME280;5071;52.360;13.134;2022-07-01T00:25:41;100690.09;;;21.43;74.96
10064;BME280;5071;52.360;13.134;2022-07-01T00:30:44;100687.09;;;21.33;75.56
10064;BME280;5071;52.360;13.134;2022-07-01T00:35:46;100677.75;;;21.39;75.26
10064;BME280;5071;52.360;13.134;2022-07-01T00:40:52;100673.44;;;21.20;75.81
10064;BME280;5071;52.360;13.134;2022-07-01T00:45:54;100684.06;;;21.07;76.28
10064;BME280;5071;52.360;13.134;2022-07-01T00:50:57;100688.94;;;21.01;76.78
10064;BME280;5071;52.360;13.134;2022-07-01T00:56:01;100686.50;;;20.96;77.46
10064;BME280;5071;52.360;13.134;2022-07-01T01:01:03;100689.72;;;21.03;77.35
10064;BME280;5071;52.360;13.134;2022-07-01T01:06:05;100698.06;;;20.98;77.40
10064;BME280;5071;52.360;13.134;2022-07-01T01:11:09;100693.47;;;20.84;77.05
10064;BME280;5071;52.360;13.134;2022-07-01T01:16:18;100689.78;;;20.85;77.40
10064;BME280;5071;52.360;13.134;2022-07-01T01:21:22;100671.84;;;20.68;77.82
10064;BME280;5071;52.360;13.134;2022-07-01T01:26:24;100666.88;;;20.61;78.30
10064;BME280;5071;52.360;13.134;2022-07-01T01:31:27;100666.56;;;20.49;78.69
10064;BME280;5071;52.360;13.134;2022-07-01T01:36:31;100653.59;;;20.40;79.34
10064;BME280;5071;52.360;13.134;2022-07-01T01:41:33;100650.38;;;20.33;80.12
10064;BME280;5071;52.360;13.134;2022-07-01T01:46:35;100634.28;;;20.32;80.02
10064;BME280;5071;52.360;13.134;2022-07-01T01:51:39;100632.78;;;20.26;80.12
10064;BME280;5071;52.360;13.134;2022-07-01T01:56:42;100621.31;;;20.23;80.16
10064;BME280;5071;52.360;13.134;2022-07-01T02:01:44;100627.81;;;20.18;80.48
10064;BME280;5071;52.360;13.134;2022-07-01T02:06:47;100629.56;;;20.19;80.48
10064;BME280;5071;52.360;13.134;2022-07-01T02:11:49;100635.91;;;20.18;80.56
10064;BME280;5071;52.360;13.134;2022-07-01T02:16:52;100625.13;;;20.18;80.95
10064;BME280;5071;52.360;13.134;2022-07-01T02:21:55;100626.25;;;20.14;81.19
10064;BME280;5071;52.360;13.134;2022-07-01T02:26:57;100640.66;;;20.13;81.61
10064;BME280;5071;52.360;13.134;2022-07-01T02:31:59;100654.16;;;20.13;81.22
10064;BME280;5071;52.360;13.134;2022-07-01T02:37:03;100661.84;;;20.04;81.15
10064;BME280;5071;52.360;13.134;2022-07-01T02:42:05;100654.59;;;19.88;81.28
10064;BME280;5071;52.360;13.134;2022-07-01T02:47:08;100668.22;;;19.85;82.48
10064;BME280;5071;52.360;13.134;2022-07-01T02:52:11;100671.75;;;19.86;82.28
10064;BME280;5071;52.360;13.134;2022-07-01T02:57:14;100671.47;;;19.92;82.62
10064;BME280;5071;52.360;13.134;2022-07-01T03:02:16;100667.66;;;19.96;82.05
10064;BME280;5071;52.360;13.134;2022-07-01T03:07:20;100670.97;;;20.01;82.22
10064;BME280;5071;52.360;13.134;2022-07-01T03:12:23;100680.00;;;20.00;82.44
10064;BME280;5071;52.360;13.134;2022-07-01T03:17:25;100678.09;;;20.02;82.83
10064;BME280;5071;52.360;13.134;2022-07-01T03:22:30;100683.16;;;20.08;82.65
10064;BME280;5071;52.360;13.134;2022-07-01T03:27:33;100686.66;;;20.10;82.17
10064;BME280;5071;52.360;13.134;2022-07-01T03:32:35;100673.66;;;20.18;82.34
10064;BME280;5071;52.360;13.134;2022-07-01T03:37:39;100668.00;;;20.23;82.60
10064;BME280;5071;52.360;13.134;2022-07-01T03:42:41;100673.31;;;20.25;82.42
10064;BME280;5071;52.360;13.134;2022-07-01T03:47:46;100674.56;;;20.35;82.16
10064;BME280;5071;52.360;13.134;2022-07-01T03:52:51;100683.47;;;20.53;82.18
10064;BME280;5071;52.360;13.134;2022-07-01T03:57:53;100678.28;;;20.66;81.20
10064;BME280;5071;52.360;13.134;2022-07-01T04:02:55;100662.81;;;20.85;80.58
10064;BME280;5071;52.360;13.134;2022-07-01T04:07:59;100654.03;;;20.97;80.22
10064;BME280;5071;52.360;13.134;2022-07-01T04:13:02;100656.91;;;21.10;79.82
10064;BME280;5071;52.360;13.134;2022-07-01T04:18:25;100639.72;;;21.27;79.26
10064;BME280;5071;52.360;13.134;2022-07-01T04:23:29;100645.91;;;21.29;79.05
10064;BME280;5071;52.360;13.134;2022-07-01T04:28:31;100668.88;;;21.36;79.37
10064;BME280;5071;52.360;13.134;2022-07-01T04:33:33;100684.94;;;22.00;79.22
10064;BME280;5071;52.360;13.134;2022-07-01T04:38:36;100681.63;;;24.04;73.23
10064;BME280;5071;52.360;13.134;2022-07-01T04:43:38;100685.13;;;25.32;65.66
10064;BME280;5071;52.360;13.134;2022-07-01T04:48:42;100706.22;;;24.91;65.27
10064;BME280;5071;52.360;13.134;2022-07-01T04:53:46;100701.44;;;23.92;69.25
10064;BME280;5071;52.360;13.134;2022-07-01T04:58:48;100703.59;;;23.87;70.23
10064;BME280;5071;52.360;13.134;2022-07-01T05:03:50;100721.78;;;23.45;71.25
10064;BME280;5071;52.360;13.134;2022-07-01T05:08:54;100740.94;;;23.69;71.37
10064;BME280;5071;52.360;13.134;2022-07-01T05:13:56;100750.25;;;23.38;71.36
10064;BME280;5071;52.360;13.134;2022-07-01T05:18:58;100754.47;;;23.15;71.99
10064;BME280;5071;52.360;13.134;2022-07-01T05:24:01;100775.31;;;22.84;73.21
10064;BME280;5071;52.360;13.134;2022-07-01T05:29:03;100788.97;;;22.68;74.56
10064;BME280;5071;52.360;13.134;2022-07-01T05:34:05;100775.06;;;22.88;73.26
10064;BME280;5071;52.360;13.134;2022-07-01T05:39:08;100795.34;;;23.10;72.89
10064;BME280;5071;52.360;13.134;2022-07-01T05:44:11;100790.16;;;23.07;73.13
10064;BME280;5071;52.360;13.134;2022-07-01T05:49:13;100800.00;;;24.31;68.69
10064;BME280;5071;52.360;13.134;2022-07-01T05:54:20;100790.03;;;24.44;67.63
10064;BME280;5071;52.360;13.134;2022-07-01T05:59:22;100787.13;;;24.48;66.55
10064;BME280;5071;52.360;13.134;2022-07-01T06:04:24;100784.81;;;25.06;66.44
10064;BME280;5071;52.360;13.134;2022-07-01T06:09:28;100783.81;;;26.75;60.50
10064;BME280;5071;52.360;13.134;2022-07-01T06:14:30;100791.41;;;26.48;61.07
10064;BME280;5071;52.360;13.134;2022-07-01T06:19:32;100811.19;;;27.30;57.56
10064;BME280;5071;52.360;13.134;2022-07-01T06:24:35;100798.31;;;28.41;55.28
10064;BME280;5071;52.360;13.134;2022-07-01T06:29:38;100806.34;;;28.54;54.11
10064;BME280;5071;52.360;13.134;2022-07-01T06:34:40;100799.59;;;28.37;53.81
10064;BME280;5071;52.360;13.134;2022-07-01T06:39:44;100792.63;;;29.05;51.79
10064;BME280;5071;52.360;13.134;2022-07-01T06:44:46;100789.91;;;26.44;58.19
10064;BME280;5071;52.360;13.134;2022-07-01T06:49:48;100783.75;;;26.53;57.48
10064;BME280;5071;52.360;13.134;2022-07-01T06:54:57;100780.19;;;28.40;52.39
10064;BME280;5071;52.360;13.134;2022-07-01T06:59:59;100783.81;;;30.02;48.49
10064;BME280;5071;52.360;13.134;2022-07-01T07:05:00;100790.25;;;28.18;52.15
10064;BME280;5071;52.360;13.134;2022-07-01T07:10:06;100789.09;;;28.53;51.44
10064;BME280;5071;52.360;13.134;2022-07-01T07:15:08;100784.31;;;28.76;50.88
10064;BME280;5071;52.360;13.134;2022-07-01T07:20:11;100791.28;;;27.62;52.45
10064;BME280;5071;52.360;13.134;2022-07-01T07:25:14;100795.44;;;26.66;53.11
10064;BME280;5071;52.360;13.134;2022-07-01T07:30:17;100804.03;;;28.17;48.28
10064;BME280;5071;52.360;13.134;2022-07-01T07:35:19;100810.88;;;27.67;49.55
10064;BME280;5071;52.360;13.134;2022-07-01T07:40:22;100813.69;;;27.77;49.84
10064;BME280;5071;52.360;13.134;2022-07-01T07:45:25;100818.97;;;26.67;52.27
10064;BME280;5071;52.360;13.134;2022-07-01T07:50:27;100817.28;;;26.53;53.22
10064;BME280;5071;52.360;13.134;2022-07-01T07:55:30;100814.53;;;26.07;54.15
10064;BME280;5071;52.360;13.134;2022-07-01T08:00:33;100815.84;;;25.77;55.09
10064;BME280;5071;52.360;13.134;2022-07-01T08:05:40;100805.34;;;25.96;54.61
10064;BME280;5071;52.360;13.134;2022-07-01T08:10:44;100814.78;;;26.04;54.90
10064;BME280;5071;52.360;13.134;2022-07-01T08:15:46;100823.56;;;26.43;54.81
10064;BME280;5071;52.360;13.134;2022-07-01T08:20:48;100814.91;;;26.37;54.44
10064;BME280;5071;52.360;13.134;2022-07-01T08:25:52;100811.75;;;26.66;54.47
10064;BME280;5071;52.360;13.134;2022-07-01T08:30:54;100808.56;;;27.18;53.14
10064;BME280;5071;52.360;13.134;2022-07-01T08:35:56;100821.56;;;27.37;53.49
10064;BME280;5071;52.360;13.134;2022-07-01T08:41:00;100837.06;;;27.13;54.82
10064;BME280;5071;52.360;13.134;2022-07-01T08:46:02;100864.81;;;26.96;54.06
10064;BME280;5071;52.360;13.134;2022-07-01T08:51:04;100902.41;;;24.15;60.92
10064;BME280;5071;52.360;13.134;2022-07-01T08:56:08;100929.81;;;22.50;65.54
10064;BME280;5071;52.360;13.134;2022-07-01T09:01:15;100937.78;;;21.90;67.86
10064;BME280;5071;52.360;13.134;2022-07-01T09:06:20;100952.94;;;21.10;70.01
10064;BME280;5071;52.360;13.134;2022-07-01T09:11:25;100965.50;;;20.57;71.95
10064;BME280;5071;52.360;13.134;2022-07-01T09:16:27;100977.91;;;20.25;72.95
10064;BME280;5071;52.360;13.134;2022-07-01T09:21:30;100968.31;;;20.00;74.68
10064;BME280;5071;52.360;13.134;2022-07-01T09:26:34;100967.81;;;19.92;74.87
10064;BME280;5071;52.360;13.134;2022-07-01T09:31:47;100989.00;;;19.80;75.25
10064;BME280;5071;52.360;13.134;2022-07-01T09:36:54;101002.31;;;19.84;75.34
10064;BME280;5071;52.360;13.134;2022-07-01T09:41:59;101005.44;;;19.54;75.31
10064;BME280;5071;52.360;13.134;2022-07-01T09:47:01;101023.66;;;19.49;74.97
10064;BME280;5071;52.360;13.134;2022-07-01T09:52:04;101017.19;;;19.32;76.15
10064;BME280;5071;52.360;13.134;2022-07-01T09:57:08;101036.03;;;19.12;76.45
10064;BME280;5071;52.360;13.134;2022-07-01T10:02:11;101008.34;;;18.65;77.58
10064;BME280;5071;52.360;13.134;2022-07-01T10:07:25;101061.41;;;18.62;79.59
10064;BME280;5071;52.360;13.134;2022-07-01T10:12:35;101068.28;;;18.47;81.51
10064;BME280;5071;52.360;13.134;2022-07-01T10:17:43;101067.13;;;17.83;84.34
10064;BME280;5071;52.360;13.134;2022-07-01T10:22:46;101076.41;;;17.49;85.99
10064;BME280;5071;52.360;13.134;2022-07-01T10:33:32;101110.03;;;17.35;87.25
10064;BME280;5071;52.360;13.134;2022-07-01T10:38:35;101118.03;;;17.36;87.57
10064;BME280;5071;52.360;13.134;2022-07-01T10:43:57;101123.84;;;17.22;87.08
10064;BME280;5071;52.360;13.134;2022-07-01T10:49:01;101117.00;;;17.14;87.06
10064;BME280;5071;52.360;13.134;2022-07-01T10:54:03;101121.69;;;17.07;87.56
10064;BME280;5071;52.360;13.134;2022-07-01T10:59:05;101137.00;;;17.03;87.49
10064;BME280;5071;52.360;13.134;2022-07-01T11:04:09;101123.50;;;17.06;87.65
10064;BME280;5071;52.360;13.134;2022-07-01T11:09:12;101105.13;;;16.94;87.39
10064;BME280;5071;52.360;13.134;2022-07-01T11:14:14;101109.44;;;16.98;87.43
10064;BME280;5071;52.360;13.134;2022-07-01T11:19:24;101106.06;;;17.20;87.25
10064;BME280;5071;52.360;13.134;2022-07-01T11:24:26;101074.69;;;17.72;85.85
10064;BME280;5071;52.360;13.134;2022-07-01T11:29:28;101085.31;;;17.75;85.11
10064;BME280;5071;52.360;13.134;2022-07-01T11:34:32;101110.69;;;17.92;85.13
10064;BME280;5071;52.360;13.134;2022-07-01T11:39:34;101122.88;;;18.02;83.91
10064;BME280;5071;52.360;13.134;2022-07-01T11:44:39;101098.69;;;18.25;82.04
10064;BME280;5071;52.360;13.134;2022-07-01T11:49:47;101096.84;;;18.50;80.97
10064;BME280;5071;52.360;13.134;2022-07-01T11:54:51;101083.09;;;18.57;79.19
10064;BME280;5071;52.360;13.134;2022-07-01T11:59:55;101085.59;;;18.40;80.35
10064;BME280;5071;52.360;13.134;2022-07-01T12:04:59;101060.38;;;18.42;79.18
10064;BME280;5071;52.360;13.134;2022-07-01T12:10:02;101054.06;;;18.21;79.96
10064;BME280;5071;52.360;13.134;2022-07-01T12:15:06;101048.97;;;18.81;79.38
10064;BME280;5071;52.360;13.134;2022-07-01T12:20:30;101045.56;;;18.54;77.27
10064;BME280;5071;52.360;13.134;2022-07-01T12:25:33;101034.59;;;18.60;78.23
10064;BME280;5071;52.360;13.134;2022-07-01T12:30:35;101043.69;;;19.00;75.87
10064;BME280;5071;52.360;13.134;2022-07-01T12:35:41;101045.44;;;19.42;74.36
10064;BME280;5071;52.360;13.134;2022-07-01T12:40:43;101073.16;;;19.03;75.33
10064;BME280;5071;52.360;13.134;2022-07-01T12:45:45;101092.47;;;19.13;75.20
10064;BME280;5071;52.360;13.134;2022-07-01T12:50:51;101125.09;;;18.60;77.73
10064;BME280;5071;52.360;13.134;2022-07-01T12:55:55;101130.31;;;18.41;78.20
10064;BME280;5071;52.360;13.134;2022-07-01T13:00:58;101144.94;;;18.34;77.26
10064;BME280;5071;52.360;13.134;2022-07-01T13:06:01;101161.16;;;18.07;77.53
10064;BME280;5071;52.360;13.134;2022-07-01T13:11:04;101150.78;;;18.21;78.82
10064;BME280;5071;52.360;13.134;2022-07-01T13:16:06;101165.00;;;18.00;79.36
10064;BME280;5071;52.360;13.134;2022-07-01T13:21:10;101176.81;;;17.96;77.40
10064;BME280;5071;52.360;13.134;2022-07-01T13:26:12;101188.56;;;18.17;77.93
10064;BME280;5071;52.360;13.134;2022-07-01T13:31:14;101183.72;;;18.03;77.63
10064;BME280;5071;52.360;13.134;2022-07-01T13:36:18;101196.88;;;17.85;77.89
10064;BME280;5071;52.360;13.134;2022-07-01T13:41:20;101204.03;;;17.58;79.10
10064;BME280;5071;52.360;13.134;2022-07-01T13:46:22;101219.19;;;17.61;79.18
10064;BME280;5071;52.360;13.134;2022-07-01T13:51:26;101239.41;;;17.71;79.11
10064;BME280;5071;52.360;13.134;2022-07-01T13:56:28;101253.56;;;17.49;78.75
10064;BME280;5071;52.360;13.134;2022-07-01T14:01:30;101237.44;;;17.49;79.89
10064;BME280;5071;52.360;13.134;2022-07-01T14:06:33;101253.44;;;17.53;79.94
10064;BME280;5071;52.360;13.134;2022-07-01T14:11:36;101260.00;;;17.16;80.72
10064;BME280;5071;52.360;13.134;2022-07-01T14:16:38;101252.59;;;17.24;81.65
10064;BME280;5071;52.360;13.134;2022-07-01T14:21:41;101259.28;;;17.39;80.97
10064;BME280;5071;52.360;13.134;2022-07-01T14:26:43;101240.00;;;17.26;81.22
10064;BME280;5071;52.360;13.134;2022-07-01T14:31:46;101225.75;;;17.24;80.86
10064;BME280;5071;52.360;13.134;2022-07-01T14:36:49;101224.84;;;17.25;80.94
10064;BME280;5071;52.360;13.134;2022-07-01T14:41:51;101206.13;;;17.50;81.52
10064;BME280;5071;52.360;13.134;2022-07-01T14:46:57;101244.56;;;17.77;79.25
10064;BME280;5071;52.360;13.134;2022-07-01T14:52:01;101257.28;;;17.72;79.43
10064;BME280;5071;52.360;13.134;2022-07-01T14:57:03;101263.00;;;17.61;79.73
10064;BME280;5071;52.360;13.134;2022-07-01T15:02:06;101271.72;;;17.68;79.35
10064;BME280;5071;52.360;13.134;2022-07-01T15:07:09;101279.28;;;17.83;79.48
10064;BME280;5071;52.360;13.134;2022-07-01T15:12:12;101298.25;;;17.77;78.18
10064;BME280;5071;52.360;13.134;2022-07-01T15:17:14;101303.84;;;17.71;79.32
10064;BME280;5071;52.360;13.134;2022-07-01T15:22:18;101301.44;;;17.62;78.12
10064;BME280;5071;52.360;13.134;2022-07-01T15:27:20;101308.38;;;17.69;77.04
10064;BME280;5071;52.360;13.134;2022-07-01T15:32:23;101313.34;;;18.10;76.14
10064;BME280;5071;52.360;13.134;2022-07-01T15:37:26;101305.09;;;18.14;76.17
10064;BME280;5071;52.360;13.134;2022-07-01T15:42:29;101314.75;;;18.20;76.24
10064;BME280;5071;52.360;13.134;2022-07-01T15:47:31;101318.75;;;18.08;77.36
10064;BME280;5071;52.360;13.134;2022-07-01T15:52:35;101323.41;;;18.03;75.74
10064;BME280;5071;52.360;13.134;2022-07-01T15:57:37;101334.16;;;18.03;75.02
10064;BME280;5071;52.360;13.134;2022-07-01T16:02:40;101354.38;;;17.86;74.90
10064;BME280;5071;52.360;13.134;2022-07-01T16:07:44;101357.63;;;17.68;74.18
10064;BME280;5071;52.360;13.134;2022-07-01T16:12:48;101359.47;;;17.66;74.33
10064;BME280;5071;52.360;13.134;2022-07-01T16:17:50;101362.94;;;17.41;75.03
10064;BME280;5071;52.360;13.134;2022-07-01T16:22:54;101374.34;;;17.20;76.45
10064;BME280;5071;52.360;13.134;2022-07-01T16:27:57;101371.00;;;17.12;77.35
10064;BME280;5071;52.360;13.134;2022-07-01T16:33:00;101359.72;;;17.30;76.08
10064;BME280;5071;52.360;13.134;2022-07-01T16:38:06;101375.66;;;17.36;75.68
10064;BME280;5071;52.360;13.134;2022-07-01T16:43:09;101386.88;;;17.49;75.40
10064;BME280;5071;52.360;13.134;2022-07-01T16:48:11;101387.13;;;17.40;76.26
10064;BME280;5071;52.360;13.134;2022-07-01T16:53:15;101371.19;;;17.35;76.61
10064;BME280;5071;52.360;13.134;2022-07-01T16:58:20;101371.25;;;17.62;75.30
10064;BME280;5071;52.360;13.134;2022-07-01T17:03:23;101410.75;;;17.58;76.10
10064;BME280;5071;52.360;13.134;2022-07-01T17:08:34;101416.91;;;17.62;76.22
10064;BME280;5071;52.360;13.134;2022-07-01T17:13:37;101413.00;;;17.72;74.75
10064;BME280;5071;52.360;13.134;2022-07-01T17:18:40;101414.22;;;17.62;74.70
10064;BME280;5071;52.360;13.134;2022-07-01T17:23:46;101410.50;;;17.66;73.11
10064;BME280;5071;52.360;13.134;2022-07-01T17:28:55;101412.28;;;17.67;71.90
10064;BME280;5071;52.360;13.134;2022-07-01T17:33:58;101420.31;;;17.67;72.32
10064;BME280;5071;52.360;13.134;2022-07-01T17:39:05;101435.69;;;17.62;71.77
10064;BME280;5071;52.360;13.134;2022-07-01T17:44:10;101430.44;;;17.59;72.57
10064;BME280;5071;52.360;13.134;2022-07-01T17:49:14;101427.25;;;17.46;73.43
10064;BME280;5071;52.360;13.134;2022-07-01T17:54:19;101432.19;;;17.60;73.45
10064;BME280;5071;52.360;13.134;2022-07-01T17:59:22;101444.84;;;17.55;73.87
10064;BME280;5071;52.360;13.134;2022-07-01T18:04:26;101464.47;;;17.57;73.40
10064;BME280;5071;52.360;13.134;2022-07-01T18:09:30;101471.81;;;17.52;73.78
10064;BME280;5071;52.360;13.134;2022-07-01T18:14:35;101463.97;;;17.44;74.14
10064;BME280;5071;52.360;13.134;2022-07-01T18:20:00;101468.69;;;17.65;74.81
10064;BME280;5071;52.360;13.134;2022-07-01T18:25:06;101476.19;;;17.85;72.46
10064;BME280;5071;52.360;13.134;2022-07-01T18:30:10;101478.97;;;18.11;72.77
10064;BME280;5071;52.360;13.134;2022-07-01T18:35:14;101466.91;;;17.96;70.98
10064;BME280;5071;52.360;13.134;2022-07-01T18:40:19;101458.28;;;17.84;70.01
10064;BME280;5071;52.360;13.134;2022-07-01T18:45:22;101456.69;;;17.77;70.57
10064;BME280;5071;52.360;13.134;2022-07-01T18:50:24;101472.03;;;18.03;70.31
10064;BME280;5071;52.360;13.134;2022-07-01T18:55:28;101473.78;;;17.75;70.95
10064;BME280;5071;52.360;13.134;2022-07-01T19:00:35;101480.81;;;17.79;70.65
10064;BME280;5071;52.360;13.134;2022-07-01T19:05:37;101485.69;;;17.66;70.41
10064;BME280;5071;52.360;13.134;2022-07-01T19:10:41;101494.34;;;17.46;70.28
10064;BME280;5071;52.360;13.134;2022-07-01T19:15:43;101526.22;;;17.57;70.08
10064;BME280;5071;52.360;13.134;2022-07-01T19:20:45;101526.50;;;17.47;70.31
10064;BME280;5071;52.360;13.134;2022-07-01T19:25:49;101554.34;;;17.43;71.47
10064;BME280;5071;52.360;13.134;2022-07-01T19:30:51;101575.34;;;17.27;71.50
10064;BME280;5071;52.360;13.134;2022-07-01T19:35:53;101594.84;;;17.34;70.98
10064;BME280;5071;52.360;13.134;2022-07-01T19:40:57;101592.25;;;17.31;71.61
10064;BME280;5071;52.360;13.134;2022-07-01T19:45:59;101606.47;;;17.35;70.65
10064;BME280;5071;52.360;13.134;2022-07-01T19:51:01;101617.41;;;17.27;70.43
10064;BME280;5071;52.360;13.134;2022-07-01T19:56:05;101632.53;;;17.29;70.27
10064;BME280;5071;52.360;13.134;2022-07-01T20:01:07;101630.53;;;17.38;70.30
10064;BME280;5071;52.360;13.134;2022-07-01T20:06:10;101649.63;;;17.27;70.12
10064;BME280;5071;52.360;13.134;2022-07-01T20:11:13;101672.00;;;17.26;71.10
10064;BME280;5071;52.360;13.134;2022-07-01T20:16:15;101673.00;;;17.22;71.06
10064;BME280;5071;52.360;13.134;2022-07-01T20:21:16;101658.56;;;17.26;70.86
10064;BME280;5071;52.360;13.134;2022-07-01T20:26:20;101670.84;;;17.36;71.46
10064;BME280;5071;52.360;13.134;2022-07-01T20:31:22;101654.75;;;17.36;72.20
10064;BME280;5071;52.360;13.134;2022-07-01T20:36:25;101666.69;;;17.23;71.98
10064;BME280;5071;52.360;13.134;2022-07-01T20:41:28;101673.22;;;17.13;72.12
10064;BME280;5071;52.360;13.134;2022-07-01T20:46:30;101682.56;;;16.96;73.23
10064;BME280;5071;52.360;13.134;2022-07-01T20:51:32;101703.09;;;16.97;72.96
10064;BME280;5071;52.360;13.134;2022-07-01T20:56:35;101703.09;;;16.97;74.06
10064;BME280;5071;52.360;13.134;2022-07-01T21:01:39;101698.94;;;16.84;74.25
10064;BME280;5071;52.360;13.134;2022-07-01T21:06:41;101697.03;;;16.89;74.96
10064;BME280;5071;52.360;13.134;2022-07-01T21:11:45;101694.47;;;16.81;75.67
10064;BME280;5071;52.360;13.134;2022-07-01T21:16:47;101689.34;;;16.72;76.50
10064;BME280;5071;52.360;13.134;2022-07-01T21:21:49;101682.50;;;16.59;75.77
10064;BME280;5071;52.360;13.134;2022-07-01T21:26:53;101687.50;;;16.33;76.36
10064;BME280;5071;52.360;13.134;2022-07-01T21:31:55;101686.91;;;16.19;77.74
10064;BME280;5071;52.360;13.134;2022-07-01T21:36:57;101688.66;;;16.22;78.01
10064;BME280;5071;52.360;13.134;2022-07-01T21:42:04;101686.88;;;16.21;77.68
10064;BME280;5071;52.360;13.134;2022-07-01T21:47:07;101703.94;;;16.17;78.36
10064;BME280;5071;52.360;13.134;2022-07-01T21:52:13;101705.91;;;16.07;77.92
10064;BME280;5071;52.360;13.134;2022-07-01T21:57:18;101708.53;;;16.10;79.25
10064;BME280;5071;52.360;13.134;2022-07-01T22:02:21;101713.19;;;15.99;79.20
10064;BME280;5071;52.360;13.134;2022-07-01T22:07:24;101720.63;;;15.84;79.28
10064;BME280;5071;52.360;13.134;2022-07-01T22:12:28;101722.56;;;15.76;79.61
10064;BME280;5071;52.360;13.134;2022-07-01T22:17:34;101724.63;;;15.59;79.89
10064;BME280;5071;52.360;13.134;2022-07-01T22:22:38;101726.56;;;15.50;80.73
10064;BME280;5071;52.360;13.134;2022-07-01T22:27:42;101735.16;;;15.15;81.33
10064;BME280;5071;52.360;13.134;2022-07-01T22:32:46;101741.59;;;15.02;81.99
10064;BME280;5071;52.360;13.134;2022-07-01T22:37:51;101734.56;;;14.93;82.41
10064;BME280;5071;52.360;13.134;2022-07-01T22:42:56;101736.31;;;14.94;82.62
10064;BME280;5071;52.360;13.134;2022-07-01T22:48:03;101736.44;;;14.88;82.28
10064;BME280;5071;52.360;13.134;2022-07-01T22:53:09;101741.16;;;14.69;82.44
10064;BME280;5071;52.360;13.134;2022-07-01T22:58:18;101736.94;;;14.48;83.14
10064;BME280;5071;52.360;13.134;2022-07-01T23:03:26;101747.81;;;14.32;83.34
10064;BME280;5071;52.360;13.134;2022-07-01T23:08:34;101758.69;;;14.14;83.54
10064;BME280;5071;52.360;13.134;2022-07-01T23:13:48;101748.22;;;13.95;83.87
10064;BME280;5071;52.360;13.134;2022-07-01T23:18:56;101751.03;;;13.78;84.59
10064;BME280;5071;52.360;13.134;2022-07-01T23:24:02;101759.19;;;13.61;84.61
10064;BME280;5071;52.360;13.134;2022-07-01T23:29:06;101753.84;;;13.65;85.30
10064;BME280;5071;52.360;13.134;2022-07-01T23:34:09;101749.41;;;13.64;85.36
10064;BME280;5071;52.360;13.134;2022-07-01T23:39:11;101757.47;;;13.57;85.68
10064;BME280;5071;52.360;13.134;2022-07-01T23:44:14;101759.34;;;13.46;85.64
10064;BME280;5071;52.360;13.134;2022-07-01T23:49:16;101759.38;;;13.40;85.84
10064;BME280;5071;52.360;13.134;2022-07-01T23:54:19;101759.41;;;13.37;85.72
10064;BME280;5071;52.360;13.134;2022-07-01T23:59:23;101760.34;;;13.31;85.77
